createdAt,value
2023-09-27T00:01:06.702Z,71.51
2023-09-27T00:03:09.857Z,71.88
2023-09-27T00:05:12.543Z,72.22
2023-09-27T00:07:15.359Z,71.90
2023-09-27T00:09:17.311Z,71.89
2023-09-27T00:11:19.299Z,71.81
2023-09-27T00:13:20.996Z,72.00
2023-09-27T00:15:24.711Z,72.31
2023-09-27T00:17:26.379Z,72.33
2023-09-27T00:19:28.154Z,72.56
2023-09-27T00:21:29.872Z,72.17
2023-09-27T00:23:31.610Z,72.04
2023-09-27T00:25:34.010Z,72.36
2023-09-27T00:27:36.969Z,72.35
2023-09-27T00:29:39.324Z,72.26
2023-09-27T00:31:42.850Z,71.59
2023-09-27T00:33:44.524Z,71.64
2023-09-27T00:35:49.224Z,71.36
2023-09-27T00:37:51.413Z,71.45
2023-09-27T00:39:53.312Z,72.01
2023-09-27T00:41:56.115Z,72.01
2023-09-27T00:43:58.365Z,71.78
2023-09-27T00:46:02.430Z,71.85
2023-09-27T00:48:06.778Z,71.83
2023-09-27T00:50:09.855Z,71.82
2023-09-27T00:52:13.766Z,72.02
2023-09-27T00:54:16.440Z,71.76
2023-09-27T00:56:18.412Z,71.52
2023-09-27T00:58:21.690Z,71.52
2023-09-27T01:00:23.787Z,71.53
2023-09-27T01:02:26.435Z,71.92
2023-09-27T01:04:30.761Z,71.80
2023-09-27T01:06:37.075Z,71.92
2023-09-27T01:08:39.168Z,72.24
2023-09-27T01:10:42.987Z,72.59
2023-09-27T01:12:44.677Z,71.71
2023-09-27T01:14:46.526Z,72.44
2023-09-27T01:16:48.219Z,72.62
2023-09-27T01:18:49.816Z,72.45
2023-09-27T01:20:53.309Z,72.35
2023-09-27T01:22:58.763Z,72.27
2023-09-27T01:25:03.607Z,72.24
2023-09-27T01:27:10.680Z,72.22
2023-09-27T01:29:12.344Z,71.97
2023-09-27T01:31:14.621Z,72.42
2023-09-27T01:33:17.483Z,72.05
2023-09-27T01:35:19.914Z,72.00
2023-09-27T01:37:23.273Z,71.80
2023-09-27T01:39:27.405Z,72.42
2023-09-27T01:41:29.298Z,72.19
2023-09-27T01:43:31.202Z,71.96
2023-09-27T01:45:33.217Z,72.14
2023-09-27T01:47:35.011Z,71.89
2023-09-27T01:49:37.116Z,71.49
2023-09-27T01:51:38.667Z,71.71
2023-09-27T01:53:40.413Z,72.09
2023-09-27T01:55:45.252Z,72.00
2023-09-27T01:57:47.692Z,71.67
2023-09-27T01:59:49.940Z,71.52
2023-09-27T02:01:51.580Z,72.23
2023-09-27T02:03:53.666Z,72.37
2023-09-27T02:06:00.421Z,71.85
2023-09-27T02:08:02.483Z,72.23
2023-09-27T02:10:05.160Z,72.00
2023-09-27T02:12:08.367Z,71.93
2023-09-27T02:14:11.338Z,72.02
2023-09-27T02:16:13.336Z,72.85
2023-09-27T02:18:15.114Z,72.34
2023-09-27T02:20:18.871Z,72.48
2023-09-27T02:22:20.850Z,72.31
2023-09-27T02:24:22.792Z,73.09
2023-09-27T02:26:26.517Z,72.41
2023-09-27T02:28:30.053Z,72.55
2023-09-27T02:30:31.734Z,72.30
2023-09-27T02:32:33.913Z,72.38
2023-09-27T02:34:36.336Z,72.46
2023-09-27T02:36:38.706Z,72.14
2023-09-27T02:38:40.558Z,72.55
2023-09-27T02:40:42.221Z,73.26
2023-09-27T02:42:46.010Z,73.03
2023-09-27T02:44:49.203Z,73.03
2023-09-27T02:46:53.080Z,73.25
2023-09-27T02:48:55.578Z,73.21
2023-09-27T02:50:58.421Z,73.41
2023-09-27T02:53:00.138Z,73.47
2023-09-27T02:55:02.902Z,73.83
2023-09-27T02:57:04.552Z,74.19
2023-09-27T02:59:06.286Z,74.30
2023-09-27T03:01:11.467Z,75.10
2023-09-27T03:03:15.284Z,74.54
2023-09-27T03:05:17.241Z,74.77
2023-09-27T03:07:18.932Z,74.90
2023-09-27T03:09:20.934Z,75.04
2023-09-27T03:11:22.804Z,74.74
2023-09-27T03:13:24.752Z,74.67
2023-09-27T03:15:26.568Z,75.54
2023-09-27T03:17:29.901Z,75.27
2023-09-27T03:19:32.065Z,76.35
2023-09-27T03:21:33.915Z,76.12
2023-09-27T03:23:35.895Z,76.21
2023-09-27T03:25:37.793Z,77.02
2023-09-27T03:27:39.748Z,77.04
2023-09-27T03:29:41.704Z,77.42
2023-09-27T03:31:43.418Z,77.84
2023-09-27T03:33:46.660Z,77.53
2023-09-27T03:35:48.524Z,77.25
2023-09-27T03:37:51.538Z,77.71
2023-09-27T03:39:56.018Z,77.72
2023-09-27T03:41:57.889Z,77.81
2023-09-27T03:44:00.126Z,77.33
2023-09-27T03:46:02.548Z,77.26
2023-09-27T03:48:05.065Z,76.70
2023-09-27T03:50:09.173Z,76.40
2023-09-27T03:52:11.245Z,76.64
2023-09-27T03:54:12.926Z,77.18
2023-09-27T03:56:14.715Z,76.88
2023-09-27T03:58:16.840Z,76.99
2023-09-27T04:00:19.535Z,77.61
2023-09-27T04:02:21.287Z,77.82
2023-09-27T04:04:24.653Z,77.37
2023-09-27T04:06:38.264Z,75.99
2023-09-27T04:08:39.962Z,76.83
2023-09-27T04:10:41.955Z,76.34
2023-09-27T04:12:44.270Z,75.98
2023-09-27T04:14:46.318Z,75.85
2023-09-27T04:16:48.158Z,75.66
2023-09-27T04:18:50.126Z,75.26
2023-09-27T04:20:51.775Z,75.41
2023-09-27T04:22:54.786Z,75.17
2023-09-27T04:24:56.951Z,74.95
2023-09-27T04:26:59.817Z,75.01
2023-09-27T04:29:01.786Z,75.76
2023-09-27T04:31:03.559Z,75.94
2023-09-27T04:33:05.666Z,75.93
2023-09-27T04:35:07.876Z,75.79
2023-09-27T04:37:09.533Z,75.95
2023-09-27T04:39:12.522Z,75.46
2023-09-27T04:41:14.454Z,75.02
2023-09-27T04:43:16.390Z,75.03
2023-09-27T04:45:18.263Z,74.51
2023-09-27T04:47:20.004Z,74.63
2023-09-27T04:49:22.168Z,74.96
2023-09-27T04:51:24.082Z,74.97
2023-09-27T04:53:25.827Z,74.83
2023-09-27T04:55:29.217Z,75.31
2023-09-27T04:57:30.902Z,75.46
2023-09-27T04:59:32.584Z,75.09
2023-09-27T05:01:34.287Z,74.96
2023-09-27T05:03:36.236Z,75.09
2023-09-27T05:05:37.864Z,75.20
2023-09-27T05:07:39.778Z,75.20
2023-09-27T05:09:42.677Z,74.62
2023-09-27T05:11:46.198Z,74.51
2023-09-27T05:13:48.058Z,74.92
2023-09-27T05:15:50.249Z,74.50
2023-09-27T05:17:52.187Z,74.70
2023-09-27T05:19:54.764Z,74.63
2023-09-27T05:21:56.673Z,74.77
2023-09-27T05:23:58.309Z,75.00
2023-09-27T05:26:00.358Z,74.65
2023-09-27T05:28:04.477Z,74.96
2023-09-27T05:30:07.383Z,74.68
2023-09-27T05:32:09.240Z,76.07
2023-09-27T05:34:11.106Z,75.67
2023-09-27T05:36:13.437Z,75.28
2023-09-27T05:38:15.265Z,75.06
2023-09-27T05:40:17.400Z,74.85
2023-09-27T05:42:19.414Z,74.74
2023-09-27T05:44:22.612Z,74.67
2023-09-27T05:46:24.650Z,74.88
2023-09-27T05:48:26.463Z,74.59
2023-09-27T05:50:29.988Z,75.25
2023-09-27T05:52:32.032Z,76.21
2023-09-27T05:54:33.757Z,76.96
2023-09-27T05:56:36.247Z,77.50
2023-09-27T05:58:38.130Z,78.58
2023-09-27T06:00:41.603Z,79.22
2023-09-27T06:02:43.541Z,79.35
2023-09-27T06:04:46.945Z,79.56
2023-09-27T06:06:49.317Z,79.64
2023-09-27T06:08:51.192Z,80.16
2023-09-27T06:10:53.082Z,80.26
2023-09-27T06:12:55.503Z,80.77
2023-09-27T06:14:57.375Z,80.74
2023-09-27T06:17:00.678Z,81.16
2023-09-27T06:19:02.582Z,80.67
2023-09-27T06:21:04.947Z,80.69
2023-09-27T06:23:06.855Z,80.54
2023-09-27T06:25:09.453Z,80.52
2023-09-27T06:27:11.426Z,80.48
2023-09-27T06:29:13.118Z,80.44
2023-09-27T06:31:15.484Z,80.01
2023-09-27T06:33:18.858Z,80.08
2023-09-27T06:35:20.603Z,79.81
2023-09-27T06:37:22.449Z,79.78
2023-09-27T06:39:24.695Z,79.83
2023-09-27T06:41:26.585Z,79.70
2023-09-27T06:43:28.434Z,79.70
2023-09-27T06:45:30.160Z,80.02
2023-09-27T06:47:31.991Z,79.63
2023-09-27T06:49:35.212Z,79.74
2023-09-27T06:51:36.859Z,79.78
2023-09-27T06:53:38.602Z,79.88
2023-09-27T06:55:41.238Z,79.89
2023-09-27T06:57:44.269Z,79.56
2023-09-27T06:59:45.865Z,79.62
2023-09-27T07:01:47.474Z,79.75
2023-09-27T07:03:49.273Z,78.82
2023-09-27T07:05:52.441Z,78.63
2023-09-27T07:07:55.337Z,78.53
2023-09-27T07:09:57.285Z,78.80
2023-09-27T07:11:59.516Z,78.66
2023-09-27T07:14:01.390Z,78.59
2023-09-27T07:16:04.054Z,77.70
2023-09-27T07:18:06.336Z,77.83
2023-09-27T07:20:10.231Z,77.96
2023-09-27T07:22:13.523Z,77.38
2023-09-27T07:24:15.214Z,77.15
2023-09-27T07:26:17.081Z,77.12
2023-09-27T07:28:19.149Z,77.46
2023-09-27T07:30:21.035Z,77.02
2023-09-27T07:32:22.980Z,76.39
2023-09-27T07:34:24.658Z,76.38
2023-09-27T07:36:26.746Z,76.38
2023-09-27T07:38:29.932Z,75.86
2023-09-27T07:40:31.631Z,75.42
2023-09-27T07:42:33.298Z,74.80
2023-09-27T07:44:35.112Z,75.04
2023-09-27T07:46:36.920Z,74.45
2023-09-27T07:48:38.799Z,74.17
2023-09-27T07:50:40.524Z,74.15
2023-09-27T07:52:42.707Z,73.19
2023-09-27T07:54:46.066Z,72.24
2023-09-27T07:56:47.808Z,72.50
2023-09-27T07:58:50.152Z,72.23
2023-09-27T08:00:52.364Z,71.68
2023-09-27T08:02:54.417Z,72.06
2023-09-27T08:04:56.396Z,71.24
2023-09-27T08:06:58.047Z,71.63
2023-09-27T08:08:59.886Z,71.75
2023-09-27T08:11:03.135Z,70.68
2023-09-27T08:13:04.792Z,70.34
2023-09-27T08:15:08.329Z,69.23
2023-09-27T08:17:10.320Z,69.84
2023-09-27T08:19:12.073Z,69.17
2023-09-27T08:21:13.713Z,68.81
2023-09-27T08:23:15.404Z,68.39
2023-09-27T08:25:17.208Z,68.32
2023-09-27T08:27:20.783Z,68.39
2023-09-27T08:29:22.677Z,67.69
2023-09-27T08:31:24.461Z,66.93
2023-09-27T08:33:26.247Z,67.36
2023-09-27T08:35:28.468Z,67.19
2023-09-27T08:37:30.190Z,66.27
2023-09-27T08:39:32.626Z,66.61
2023-09-27T08:41:34.981Z,65.75
2023-09-27T08:43:39.411Z,65.57
2023-09-27T08:45:41.626Z,65.15
2023-09-27T08:47:46.754Z,64.65
2023-09-27T08:49:49.006Z,64.44
2023-09-27T08:51:52.315Z,62.95
2023-09-27T08:53:54.167Z,64.04
2023-09-27T08:55:56.187Z,63.35
2023-09-27T08:57:58.562Z,63.09
2023-09-27T09:00:02.155Z,63.09
2023-09-27T09:02:05.203Z,62.96
2023-09-27T09:04:07.236Z,61.70
2023-09-27T09:06:10.602Z,61.77
2023-09-27T09:08:12.433Z,61.38
2023-09-27T09:10:15.031Z,60.45
2023-09-27T09:12:16.701Z,60.30
2023-09-27T09:14:19.871Z,60.40
2023-09-27T09:16:23.059Z,59.25
2023-09-27T09:18:29.041Z,60.28
2023-09-27T09:20:31.238Z,59.47
2023-09-27T09:22:44.279Z,60.33
2023-09-27T09:24:45.962Z,58.96
2023-09-27T09:26:48.043Z,57.99
2023-09-27T09:28:53.818Z,59.27
2023-09-27T09:30:56.346Z,58.11
2023-09-27T09:32:59.864Z,58.15
2023-09-27T09:35:01.675Z,56.55
2023-09-27T09:37:03.319Z,56.69
2023-09-27T09:39:06.108Z,55.54
2023-09-27T09:41:07.721Z,55.22
2023-09-27T09:43:09.377Z,54.87
2023-09-27T09:45:11.434Z,55.71
2023-09-27T09:47:13.584Z,55.96
2023-09-27T09:49:17.121Z,55.53
2023-09-27T09:51:23.762Z,56.06
2023-09-27T09:53:26.227Z,53.10
2023-09-27T09:55:45.671Z,53.64
2023-09-27T09:57:55.969Z,55.38
2023-09-27T10:00:05.749Z,54.78
2023-09-27T10:02:19.984Z,56.04
2023-09-27T10:04:25.706Z,53.48
2023-09-27T10:06:45.236Z,52.68
2023-09-27T10:08:50.711Z,52.11
2023-09-27T10:10:52.304Z,52.19
2023-09-27T10:12:55.659Z,51.85
2023-09-27T10:14:57.806Z,50.45
2023-09-27T10:16:59.613Z,51.02
2023-09-27T10:19:02.212Z,50.36
2023-09-27T10:21:07.571Z,51.21
2023-09-27T10:23:10.395Z,50.89
2023-09-27T10:25:36.468Z,53.28
2023-09-27T10:28:05.191Z,53.49
2023-09-27T10:30:07.464Z,48.14
2023-09-27T10:32:18.019Z,51.04
2023-09-27T10:34:43.678Z,52.17
2023-09-27T10:39:01.850Z,49.98
2023-09-27T10:41:04.775Z,47.73
2023-09-27T10:43:06.381Z,47.24
2023-09-27T10:45:09.923Z,47.20
2023-09-27T10:47:11.544Z,46.79
2023-09-27T10:49:20.299Z,49.01
2023-09-27T10:51:22.552Z,45.58
2023-09-27T10:53:25.598Z,45.87
2023-09-27T10:55:37.529Z,49.12
2023-09-27T10:57:40.951Z,46.45
2023-09-27T10:59:42.697Z,45.06
2023-09-27T11:01:45.989Z,45.11
2023-09-27T11:03:47.662Z,44.52
2023-09-27T11:05:49.471Z,44.22
2023-09-27T11:07:51.391Z,43.24
2023-09-27T11:09:54.389Z,43.65
2023-09-27T11:11:56.346Z,44.04
2023-09-27T11:13:58.694Z,43.65
2023-09-27T11:16:09.969Z,46.09
2023-09-27T11:18:12.412Z,43.42
2023-09-27T11:20:15.644Z,43.58
2023-09-27T11:22:24.797Z,45.98
2023-09-27T11:24:37.193Z,46.27
2023-09-27T11:26:44.426Z,45.29
2023-09-27T11:28:46.170Z,43.46
2023-09-27T11:30:57.005Z,46.58
2023-09-27T11:32:59.446Z,42.08
2023-09-27T11:35:01.050Z,42.59
2023-09-27T11:37:02.583Z,43.00
2023-09-27T11:39:04.212Z,42.09
2023-09-27T11:41:06.351Z,41.53
2023-09-27T11:43:09.585Z,42.44
2023-09-27T11:45:12.047Z,41.90
2023-09-27T11:47:13.675Z,41.99
2023-09-27T11:49:15.252Z,41.90
2023-09-27T11:51:16.875Z,40.62
2023-09-27T11:53:18.509Z,40.95
2023-09-27T11:55:20.191Z,41.59
2023-09-27T11:57:21.859Z,41.71
2023-09-27T11:59:25.188Z,41.83
2023-09-27T12:01:26.890Z,42.05
2023-09-27T12:03:28.608Z,41.19
2023-09-27T12:05:30.714Z,40.38
2023-09-27T12:07:32.779Z,40.25
2023-09-27T12:09:34.850Z,39.87
2023-09-27T12:11:37.221Z,39.73
2023-09-27T12:13:38.917Z,40.57
2023-09-27T12:15:42.345Z,41.43
2023-09-27T12:17:44.390Z,40.53
2023-09-27T12:19:46.511Z,39.94
2023-09-27T12:21:48.268Z,39.93
2023-09-27T12:23:49.945Z,39.26
2023-09-27T12:25:51.800Z,39.63
2023-09-27T12:27:53.484Z,40.10
2023-09-27T12:29:55.426Z,42.18
2023-09-27T12:31:58.638Z,43.21
2023-09-27T12:34:00.422Z,43.28
2023-09-27T12:36:02.104Z,43.21
2023-09-27T12:38:04.107Z,43.26
2023-09-27T12:40:07.135Z,42.55
2023-09-27T12:42:08.871Z,43.23
2023-09-27T12:44:15.887Z,43.05
2023-09-27T12:46:23.581Z,43.34
2023-09-27T12:48:26.804Z,43.70
2023-09-27T12:50:28.568Z,42.59
2023-09-27T12:52:30.362Z,43.23
2023-09-27T12:54:32.017Z,42.66
2023-09-27T12:56:33.724Z,42.96
2023-09-27T12:58:35.621Z,43.12
2023-09-27T13:00:38.369Z,43.46
2023-09-27T13:02:40.311Z,43.71
2023-09-27T13:04:43.554Z,43.69
2023-09-27T13:06:45.376Z,43.15
2023-09-27T13:08:46.993Z,43.60
2023-09-27T13:10:48.623Z,44.12
2023-09-27T13:12:50.178Z,43.98
2023-09-27T13:14:51.857Z,43.78
2023-09-27T13:16:53.472Z,43.56
2023-09-27T13:18:55.247Z,43.58
2023-09-27T13:20:58.414Z,44.46
2023-09-27T13:22:59.958Z,43.72
2023-09-27T13:25:01.606Z,44.13
2023-09-27T13:27:03.197Z,43.86
2023-09-27T13:29:05.020Z,44.00
2023-09-27T13:31:06.634Z,43.90
2023-09-27T13:33:08.241Z,43.36
2023-09-27T13:35:10.024Z,43.79
2023-09-27T13:37:12.994Z,44.16
2023-09-27T13:39:14.609Z,44.46
2023-09-27T13:41:16.398Z,43.88
2023-09-27T13:43:18.067Z,44.19
2023-09-27T13:45:19.817Z,44.76
2023-09-27T13:47:21.976Z,44.68
2023-09-27T13:49:23.636Z,45.39
2023-09-27T13:51:25.232Z,45.31
2023-09-27T13:53:28.271Z,45.51
2023-09-27T13:55:30.165Z,45.33
2023-09-27T13:57:32.107Z,45.74
2023-09-27T13:59:33.788Z,46.20
2023-09-27T14:01:35.498Z,47.06
2023-09-27T14:03:37.187Z,47.04
2023-09-27T14:05:38.929Z,47.13
2023-09-27T14:07:41.290Z,47.30
2023-09-27T14:09:44.335Z,47.23
2023-09-27T14:11:47.299Z,47.40
2023-09-27T14:13:49.021Z,47.78
2023-09-27T14:15:50.944Z,48.28
2023-09-27T14:17:52.841Z,47.88
2023-09-27T14:19:54.621Z,47.73
2023-09-27T14:21:56.434Z,48.52
2023-09-27T14:23:58.098Z,48.24
2023-09-27T14:26:01.474Z,48.32
2023-09-27T14:28:03.435Z,48.26
2023-09-27T14:30:06.235Z,48.80
2023-09-27T14:32:08.350Z,48.87
2023-09-27T14:34:10.036Z,49.11
2023-09-27T14:36:11.749Z,49.32
2023-09-27T14:38:13.729Z,49.47
2023-09-27T14:40:15.630Z,49.92
2023-09-27T14:42:18.972Z,49.79
2023-09-27T14:44:20.937Z,50.19
2023-09-27T14:46:22.824Z,50.32
2023-09-27T14:48:24.747Z,50.38
2023-09-27T14:50:26.452Z,50.83
2023-09-27T14:52:28.188Z,50.99
2023-09-27T14:54:30.249Z,51.08
2023-09-27T14:56:32.157Z,51.40
2023-09-27T14:58:35.738Z,51.67
2023-09-27T15:00:37.399Z,51.67
2023-09-27T15:02:39.120Z,51.78
2023-09-27T15:04:41.097Z,51.40
2023-09-27T15:06:42.791Z,52.01
2023-09-27T15:08:44.438Z,51.79
2023-09-27T15:10:46.449Z,52.37
2023-09-27T15:12:48.037Z,52.37
2023-09-27T15:14:51.077Z,52.10
2023-09-27T15:16:52.846Z,53.11
2023-09-27T15:18:54.544Z,52.65
2023-09-27T15:20:56.128Z,53.06
2023-09-27T15:22:57.733Z,53.58
2023-09-27T15:24:59.537Z,53.78
2023-09-27T15:27:01.187Z,53.98
2023-09-27T15:29:02.793Z,53.77
2023-09-27T15:31:07.649Z,54.04
2023-09-27T15:33:09.335Z,54.25
2023-09-27T15:35:10.946Z,54.90
2023-09-27T15:37:12.582Z,54.91
2023-09-27T15:39:14.143Z,55.32
2023-09-27T15:41:16.207Z,55.62
2023-09-27T15:43:18.054Z,55.69
2023-09-27T15:45:20.107Z,56.15
2023-09-27T15:47:23.042Z,55.79
2023-09-27T15:49:24.639Z,56.23
2023-09-27T15:51:26.248Z,56.54
2023-09-27T15:53:31.846Z,56.19
2023-09-27T15:55:33.464Z,56.75
2023-09-27T15:57:35.262Z,57.17
2023-09-27T15:59:36.848Z,56.99
2023-09-27T16:01:38.504Z,57.48
2023-09-27T16:03:41.507Z,57.66
2023-09-27T16:05:46.946Z,56.55
2023-09-27T16:07:48.548Z,57.54
2023-09-27T16:09:50.169Z,57.29
2023-09-27T16:11:51.745Z,57.40
2023-09-27T16:13:53.512Z,58.19
2023-09-27T16:15:55.580Z,58.04
2023-09-27T16:17:57.327Z,58.08
2023-09-27T16:20:00.431Z,58.33
2023-09-27T16:22:02.181Z,58.17
2023-09-27T16:24:04.284Z,58.70
2023-09-27T16:26:06.714Z,58.94
2023-09-27T16:28:08.601Z,58.89
2023-09-27T16:30:11.554Z,59.08
2023-09-27T16:32:13.784Z,59.03
2023-09-27T16:34:15.487Z,59.53
2023-09-27T16:36:18.499Z,58.93
2023-09-27T16:38:20.051Z,59.58
2023-09-27T16:40:21.782Z,59.41
2023-09-27T16:42:23.410Z,59.96
2023-09-27T16:44:24.977Z,59.91
2023-09-27T16:46:26.631Z,59.79
2023-09-27T16:48:28.302Z,59.61
2023-09-27T16:50:29.970Z,59.90
2023-09-27T16:52:33.660Z,60.34
2023-09-27T16:54:35.414Z,60.07
2023-09-27T16:56:36.955Z,60.54
2023-09-27T16:58:38.831Z,60.72
2023-09-27T17:00:40.534Z,61.46
2023-09-27T17:02:42.919Z,60.99
2023-09-27T17:04:44.697Z,61.12
2023-09-27T17:06:46.521Z,61.48
2023-09-27T17:08:49.847Z,61.35
2023-09-27T17:10:51.556Z,62.28
2023-09-27T17:12:53.215Z,62.85
2023-09-27T17:14:54.859Z,62.79
2023-09-27T17:16:56.554Z,62.69
2023-09-27T17:18:58.191Z,63.30
2023-09-27T17:20:59.868Z,63.40
2023-09-27T17:23:01.505Z,63.48
2023-09-27T17:25:06.370Z,64.12
2023-09-27T17:27:08.018Z,64.04
2023-09-27T17:29:09.902Z,64.63
2023-09-27T17:31:11.795Z,64.49
2023-09-27T17:33:13.458Z,65.05
2023-09-27T17:35:15.381Z,65.24
2023-09-27T17:37:17.120Z,65.29
2023-09-27T17:39:18.914Z,65.41
2023-09-27T17:41:22.104Z,65.59
2023-09-27T17:43:23.924Z,64.81
2023-09-27T17:45:25.652Z,65.85
2023-09-27T17:47:27.325Z,65.20
2023-09-27T17:49:29.756Z,64.96
2023-09-27T17:51:31.545Z,65.41
2023-09-27T17:53:33.229Z,65.27
2023-09-27T17:55:34.907Z,65.98
2023-09-27T17:57:37.936Z,65.80
2023-09-27T17:59:39.794Z,65.84
2023-09-27T18:01:41.481Z,65.88
2023-09-27T18:03:43.282Z,65.70
2023-09-27T18:05:44.947Z,65.46
2023-09-27T18:07:46.705Z,66.17
2023-09-27T18:09:48.332Z,65.87
2023-09-27T18:11:49.929Z,66.19
2023-09-27T18:13:53.155Z,65.67
2023-09-27T18:15:54.874Z,66.26
2023-09-27T18:17:56.607Z,66.31
2023-09-27T18:19:59.133Z,66.40
2023-09-27T18:22:01.323Z,66.41
2023-09-27T18:24:03.001Z,66.67
2023-09-27T18:26:04.693Z,66.56
2023-09-27T18:28:06.928Z,66.39
2023-09-27T18:30:11.044Z,66.05
2023-09-27T18:32:12.699Z,66.49
2023-09-27T18:34:14.325Z,66.41
2023-09-27T18:36:15.973Z,66.21
2023-09-27T18:38:17.524Z,66.33
2023-09-27T18:40:19.133Z,66.20
2023-09-27T18:42:20.730Z,67.45
2023-09-27T18:44:22.368Z,67.18
2023-09-27T18:46:25.506Z,67.05
2023-09-27T18:48:27.365Z,66.78
2023-09-27T18:50:29.041Z,67.25
2023-09-27T18:54:32.197Z,68.10
2023-09-27T18:56:33.774Z,67.85
2023-09-27T18:58:35.510Z,67.94
2023-09-27T19:00:37.204Z,67.66
2023-09-27T19:02:40.223Z,68.24
2023-09-27T19:04:41.871Z,68.28
2023-09-27T19:06:43.464Z,68.26
2023-09-27T19:08:45.118Z,67.90
2023-09-27T19:10:46.751Z,68.74
2023-09-27T19:12:48.436Z,68.70
2023-09-27T19:14:50.070Z,68.49
2023-09-27T19:16:51.648Z,68.50
2023-09-27T19:18:54.634Z,68.79
2023-09-27T19:20:56.185Z,68.82
2023-09-27T19:22:57.936Z,69.22
2023-09-27T19:24:59.555Z,68.92
2023-09-27T19:27:01.157Z,69.25
2023-09-27T19:29:02.941Z,68.83
2023-09-27T19:31:04.587Z,69.03
2023-09-27T19:33:06.328Z,69.55
2023-09-27T19:35:09.702Z,69.55
2023-09-27T19:37:11.352Z,69.12
2023-09-27T19:39:14.210Z,69.91
2023-09-27T19:41:16.348Z,70.12
2023-09-27T19:43:18.076Z,70.43
2023-09-27T19:45:21.439Z,70.18
2023-09-27T19:47:23.211Z,70.21
2023-09-27T19:49:24.797Z,70.76
2023-09-27T19:51:28.268Z,70.10
2023-09-27T19:53:29.920Z,70.21
2023-09-27T19:55:31.536Z,70.43
2023-09-27T19:57:33.660Z,71.14
2023-09-27T19:59:35.681Z,70.60
2023-09-27T20:01:38.459Z,71.05
2023-09-27T20:03:40.370Z,71.03
2023-09-27T20:05:42.340Z,70.91
2023-09-27T20:07:45.727Z,71.22
2023-09-27T20:09:47.479Z,71.03
2023-09-27T20:11:49.333Z,71.17
2023-09-27T20:13:50.977Z,71.21
2023-09-27T20:15:52.828Z,71.22
2023-09-27T20:17:54.525Z,71.52
2023-09-27T20:19:56.263Z,71.88
2023-09-27T20:21:58.015Z,71.92
2023-09-27T20:24:01.169Z,71.49
2023-09-27T20:26:03.303Z,71.62
2023-09-27T20:28:05.709Z,71.54
2023-09-27T20:30:08.382Z,71.94
2023-09-27T20:32:10.142Z,72.03
2023-09-27T20:34:11.976Z,72.50
2023-09-27T20:36:14.317Z,72.90
2023-09-27T20:38:16.062Z,72.92
2023-09-27T20:40:19.247Z,72.46
2023-09-27T20:42:21.060Z,72.21
2023-09-27T20:44:22.717Z,72.84
2023-09-27T20:46:24.712Z,73.06
2023-09-27T20:48:26.408Z,73.22
2023-09-27T20:50:27.977Z,72.82
2023-09-27T20:52:29.629Z,73.10
2023-09-27T20:54:31.245Z,73.01
2023-09-27T20:56:34.248Z,73.44
2023-09-27T20:58:36.671Z,72.82
2023-09-27T21:00:38.285Z,73.24
2023-09-27T21:02:39.979Z,73.05
2023-09-27T21:04:41.648Z,73.25
2023-09-27T21:06:44.438Z,72.92
2023-09-27T21:08:45.998Z,72.84
2023-09-27T21:10:47.715Z,72.89
2023-09-27T21:12:50.745Z,73.00
2023-09-27T21:14:52.364Z,73.03
2023-09-27T21:16:53.982Z,72.87
2023-09-27T21:18:56.308Z,72.81
2023-09-27T21:20:57.885Z,72.79
2023-09-27T21:22:59.575Z,72.65
2023-09-27T21:25:01.276Z,72.75
2023-09-27T21:27:02.985Z,72.74
2023-09-27T21:29:06.541Z,72.95
2023-09-27T21:31:09.090Z,72.92
2023-09-27T21:33:10.693Z,72.71
2023-09-27T21:35:12.436Z,72.05
2023-09-27T21:37:14.046Z,71.93
2023-09-27T21:39:15.636Z,71.84
2023-09-27T21:41:18.545Z,71.25
2023-09-27T21:43:20.142Z,70.96
2023-09-27T21:45:23.126Z,70.70
2023-09-27T21:47:24.869Z,71.10
2023-09-27T21:49:26.476Z,70.93
2023-09-27T21:51:28.086Z,71.63
2023-09-27T21:53:29.678Z,72.08
2023-09-27T21:55:31.369Z,72.29
2023-09-27T21:57:32.989Z,72.19
2023-09-27T21:59:34.573Z,72.77
2023-09-27T22:01:37.767Z,72.50
2023-09-27T22:03:39.517Z,72.82
2023-09-27T22:05:41.061Z,72.78
2023-09-27T22:07:42.739Z,73.60
2023-09-27T22:09:44.371Z,73.37
2023-09-27T22:11:45.972Z,73.56
2023-09-27T22:13:47.859Z,73.74
2023-09-27T22:15:51.099Z,73.40
2023-09-27T22:17:54.186Z,73.57
2023-09-27T22:19:55.951Z,73.99
2023-09-27T22:21:58.938Z,73.31
2023-09-27T22:24:00.491Z,73.92
2023-09-27T22:26:03.071Z,73.59
2023-09-27T22:28:05.427Z,73.55
2023-09-27T22:30:08.103Z,73.38
2023-09-27T22:32:09.790Z,73.44
2023-09-27T22:34:12.880Z,73.68
2023-09-27T22:36:14.491Z,73.22
2023-09-27T22:38:16.085Z,73.22
2023-09-27T22:40:18.141Z,73.27
2023-09-27T22:42:19.700Z,73.69
2023-09-27T22:44:22.397Z,73.67
2023-09-27T22:46:25.003Z,74.09
2023-09-27T22:48:26.586Z,74.29
2023-09-27T22:50:29.555Z,74.29
2023-09-27T22:52:31.149Z,73.92
2023-09-27T22:54:32.749Z,74.87
2023-09-27T22:56:34.309Z,74.41
2023-09-27T22:58:36.574Z,73.88
2023-09-27T23:00:38.423Z,73.72
2023-09-27T23:02:40.043Z,73.20
2023-09-27T23:04:41.682Z,73.90
2023-09-27T23:06:46.037Z,74.08
2023-09-27T23:08:49.139Z,74.56
2023-09-27T23:10:50.890Z,74.07
2023-09-27T23:12:52.642Z,73.75
2023-09-27T23:14:54.295Z,74.23
2023-09-27T23:16:55.903Z,74.23
2023-09-27T23:18:58.118Z,74.33
2023-09-27T23:21:00.898Z,73.54
2023-09-27T23:23:04.271Z,73.52
2023-09-27T23:25:06.981Z,73.97
2023-09-27T23:27:08.597Z,73.92
2023-09-27T23:29:10.377Z,73.97
2023-09-27T23:31:12.193Z,73.61
2023-09-27T23:33:13.940Z,74.01
2023-09-27T23:35:15.595Z,74.47
2023-09-27T23:37:18.074Z,74.04
2023-09-27T23:39:21.100Z,74.98
2023-09-27T23:41:23.410Z,75.65
2023-09-27T23:43:25.426Z,75.92
2023-09-27T23:45:27.024Z,75.66
2023-09-27T23:47:28.985Z,75.61
2023-09-27T23:49:30.581Z,75.29
2023-09-27T23:51:33.149Z,75.50
2023-09-27T23:53:34.717Z,75.57
2023-09-27T23:55:37.974Z,75.19
2023-09-27T23:57:40.101Z,75.51
2023-09-27T23:59:41.755Z,75.63
